createdAt,value
2023-02-24T00:00:32.608Z,97242.69
2023-02-24T00:03:37.683Z,97236.34
2023-02-24T00:06:43.876Z,97235.22
2023-02-24T00:09:45.983Z,97222.31
2023-02-24T00:12:48.172Z,97206.44
2023-02-24T00:16:04.688Z,97229.47
2023-02-24T00:19:10.570Z,97227.03
2023-02-24T00:22:13.085Z,97217.25
2023-02-24T00:25:15.162Z,97220.91
2023-02-24T00:28:17.299Z,97179.16
2023-02-24T00:31:20.676Z,97217.16
2023-02-24T00:34:23.469Z,97209.75
2023-02-24T00:37:26.739Z,97209.19
2023-02-24T00:40:30.530Z,97214.50
2023-02-24T00:43:37.522Z,97203.19
2023-02-24T00:46:42.063Z,97157.63
2023-02-24T00:49:44.490Z,97164.41
2023-02-24T00:52:48.310Z,97148.19
2023-02-24T00:55:59.882Z,97182.94
2023-02-24T00:59:02.954Z,97176.50
2023-02-24T01:02:07.421Z,97188.94
2023-02-24T01:05:10.004Z,97163.16
2023-02-24T01:08:13.990Z,97126.91
2023-02-24T01:11:37.340Z,97170.50
2023-02-24T01:14:40.412Z,97177.66
2023-02-24T01:17:42.821Z,97164.63
2023-02-24T01:20:45.664Z,97163.50
2023-02-24T01:23:49.221Z,97165.13
2023-02-24T01:26:51.435Z,97168.09
2023-02-24T01:29:53.762Z,97164.53
2023-02-24T01:32:57.597Z,97158.31
2023-02-24T01:36:10.946Z,97154.16
2023-02-24T01:39:14.114Z,97147.50
2023-02-24T01:42:21.622Z,97146.13
2023-02-24T01:45:28.999Z,97138.31
2023-02-24T01:48:31.792Z,97118.59
2023-02-24T01:51:55.094Z,97119.06
2023-02-24T01:55:04.090Z,97112.97
2023-02-24T01:58:13.361Z,97085.13
2023-02-24T02:01:17.292Z,97128.28
2023-02-24T02:04:28.343Z,97125.19
2023-02-24T02:07:31.106Z,97083.75
2023-02-24T02:10:34.357Z,97123.09
2023-02-24T02:13:43.478Z,97123.91
2023-02-24T02:16:51.621Z,97123.22
2023-02-24T02:19:55.620Z,97116.44
2023-02-24T02:23:32.582Z,97123.91
2023-02-24T02:26:59.165Z,97119.06
2023-02-24T02:30:19.732Z,97076.25
2023-02-24T02:33:48.060Z,97124.56
2023-02-24T02:37:00.259Z,97122.00
2023-02-24T02:40:20.187Z,97075.03
2023-02-24T02:43:52.748Z,97091.41
2023-02-24T02:47:35.993Z,97113.06
2023-02-24T02:50:46.177Z,97118.38
2023-02-24T02:54:16.012Z,97088.78
2023-02-24T02:57:25.268Z,97110.91
2023-02-24T03:00:35.444Z,97077.66
2023-02-24T03:03:42.984Z,97051.31
2023-02-24T03:06:50.561Z,97106.41
2023-02-24T03:09:58.492Z,97109.16
2023-02-24T03:13:05.303Z,97106.06
2023-02-24T03:16:11.405Z,97089.03
2023-02-24T03:19:16.808Z,97057.50
2023-02-24T03:22:39.729Z,97068.31
2023-02-24T03:25:52.321Z,97061.09
2023-02-24T03:29:18.769Z,97090.78
2023-02-24T03:32:33.908Z,97082.94
2023-02-24T03:35:42.352Z,97070.28
2023-02-24T03:38:44.686Z,97103.19
2023-02-24T03:42:02.850Z,96949.91
2023-02-24T03:45:07.416Z,97102.13
2023-02-24T03:48:12.209Z,97095.19
2023-02-24T03:51:20.866Z,97095.16
2023-02-24T03:54:59.459Z,97094.44
2023-02-24T03:58:23.607Z,97039.59
2023-02-24T04:01:42.248Z,97094.50
2023-02-24T04:04:54.979Z,97060.09
2023-02-24T04:08:07.468Z,97032.28
2023-02-24T04:11:22.821Z,97081.44
2023-02-24T04:14:35.278Z,97083.63
2023-02-24T04:17:53.961Z,97063.06
2023-02-24T04:21:00.282Z,97083.13
2023-02-24T04:24:11.619Z,97062.22
2023-02-24T04:27:16.235Z,97073.59
2023-02-24T04:30:20.349Z,97035.63
2023-02-24T04:33:22.976Z,97068.28
2023-02-24T04:36:26.596Z,97068.28
2023-02-24T04:39:31.154Z,97045.28
2023-02-24T04:42:35.405Z,97062.09
2023-02-24T04:45:40.428Z,97040.97
2023-02-24T04:48:42.411Z,97057.44
2023-02-24T04:51:45.425Z,97014.16
2023-02-24T04:54:48.220Z,96989.72
2023-02-24T04:57:53.715Z,97053.66
2023-02-24T05:00:56.189Z,97055.88
2023-02-24T05:04:00.369Z,97052.66
2023-02-24T05:07:03.324Z,97000.94
2023-02-24T05:10:06.180Z,97042.34
2023-02-24T05:13:09.639Z,97047.53
2023-02-24T05:16:14.703Z,96995.19
2023-02-24T05:19:37.735Z,96983.47
2023-02-24T05:22:39.775Z,97029.81
2023-02-24T05:25:43.285Z,97000.16
2023-02-24T05:28:52.878Z,97027.34
2023-02-24T05:31:59.813Z,96990.00
2023-02-24T05:35:03.097Z,97023.94
2023-02-24T05:38:08.370Z,97016.81
2023-02-24T05:41:17.886Z,96985.19
2023-02-24T05:44:23.772Z,97019.91
2023-02-24T05:47:27.117Z,96993.44
2023-02-24T05:50:29.099Z,96979.59
2023-02-24T05:53:31.080Z,97006.69
2023-02-24T05:56:34.837Z,97009.53
2023-02-24T05:59:36.957Z,97011.56
2023-02-24T06:02:39.040Z,96997.41
2023-02-24T06:05:42.880Z,96969.38
2023-02-24T06:08:55.534Z,96999.75
2023-02-24T06:11:57.597Z,96982.69
2023-02-24T06:15:00.773Z,96995.22
2023-02-24T06:18:02.918Z,97010.94
2023-02-24T06:21:05.252Z,97004.28
2023-02-24T06:24:14.770Z,96999.75
2023-02-24T06:27:19.275Z,97009.41
2023-02-24T06:30:27.162Z,96955.41
2023-02-24T06:33:29.169Z,97002.06
2023-02-24T06:36:32.011Z,96958.31
2023-02-24T06:39:36.790Z,96959.44
2023-02-24T06:42:39.459Z,97025.53
2023-02-24T06:45:41.593Z,96981.97
2023-02-24T06:48:43.990Z,97001.28
2023-02-24T06:51:45.977Z,96964.38
2023-02-24T06:54:49.728Z,97004.41
2023-02-24T06:57:57.614Z,96977.25
2023-02-24T07:00:59.763Z,96998.88
2023-02-24T07:04:04.834Z,96970.38
2023-02-24T07:07:06.861Z,96976.00
2023-02-24T07:10:10.584Z,96934.59
2023-02-24T07:13:13.722Z,96993.53
2023-02-24T07:16:25.459Z,96939.75
2023-02-24T07:19:32.557Z,96996.84
2023-02-24T07:22:34.864Z,96982.16
2023-02-24T07:25:36.977Z,96943.56
2023-02-24T07:28:40.509Z,96985.94
2023-02-24T07:31:43.208Z,96921.66
2023-02-24T07:34:45.830Z,96920.81
2023-02-24T07:37:50.704Z,96971.72
2023-02-24T07:40:58.385Z,96928.81
2023-02-24T07:44:03.529Z,96934.13
2023-02-24T07:47:08.303Z,96956.78
2023-02-24T07:50:14.672Z,96967.44
2023-02-24T07:53:16.689Z,96960.75
2023-02-24T07:56:20.284Z,96948.84
2023-02-24T07:59:24.595Z,96933.97
2023-02-24T08:02:26.982Z,96830.66
2023-02-24T08:05:30.605Z,96927.03
2023-02-24T08:08:39.326Z,96937.38
2023-02-24T08:11:42.727Z,96898.94
2023-02-24T08:14:51.315Z,96902.69
2023-02-24T08:17:59.776Z,96915.66
2023-02-24T08:21:05.002Z,96878.66
2023-02-24T08:24:17.834Z,96903.50
2023-02-24T08:27:22.301Z,96911.19
2023-02-24T08:30:25.756Z,96911.19
2023-02-24T08:33:30.518Z,96868.97
2023-02-24T08:36:32.632Z,96881.97
2023-02-24T08:39:36.675Z,96856.69
2023-02-24T08:42:38.696Z,96895.22
2023-02-24T08:45:40.750Z,96888.47
2023-02-24T08:48:48.552Z,96889.31
2023-02-24T08:51:53.235Z,96857.69
2023-02-24T08:54:59.466Z,96883.22
2023-02-24T08:58:01.831Z,96883.84
2023-02-24T09:01:04.074Z,96842.88
2023-02-24T09:04:12.231Z,96882.13
2023-02-24T09:07:16.952Z,96868.69
2023-02-24T09:10:19.710Z,96885.44
2023-02-24T09:13:21.922Z,96847.97
2023-02-24T09:16:25.494Z,96876.38
2023-02-24T09:19:40.974Z,96857.09
2023-02-24T09:22:57.416Z,96863.84
2023-02-24T09:26:11.330Z,96836.09
2023-02-24T09:29:33.877Z,96858.53
2023-02-24T09:32:36.179Z,96842.38
2023-02-24T09:35:42.122Z,96804.91
2023-02-24T09:39:01.424Z,96841.03
2023-02-24T09:42:09.583Z,96799.84
2023-02-24T09:45:33.573Z,96845.03
2023-02-24T09:48:54.630Z,96824.75
2023-02-24T09:52:09.233Z,96790.00
2023-02-24T09:55:25.264Z,96836.88
2023-02-24T09:58:49.677Z,96830.72
2023-02-24T10:02:10.471Z,96827.41
2023-02-24T10:05:21.502Z,96831.25
2023-02-24T10:08:32.141Z,96821.53
2023-02-24T10:11:34.279Z,96808.91
2023-02-24T10:14:44.583Z,96814.34
2023-02-24T10:18:27.570Z,96806.50
2023-02-24T10:21:49.977Z,96790.56
2023-02-24T10:25:13.875Z,96753.09
2023-02-24T10:28:52.202Z,96794.94
2023-02-24T10:32:18.997Z,96707.03
2023-02-24T10:35:26.415Z,96784.06
2023-02-24T10:38:29.080Z,96722.94
2023-02-24T10:41:31.200Z,96768.41
2023-02-24T10:44:36.734Z,96693.00
2023-02-24T10:47:44.682Z,96748.84
2023-02-24T10:50:55.930Z,96757.94
2023-02-24T10:54:33.208Z,96724.59
2023-02-24T10:57:59.235Z,96743.00
2023-02-24T11:01:18.619Z,96730.13
2023-02-24T11:04:28.356Z,96694.06
2023-02-24T11:07:45.547Z,96718.94
2023-02-24T11:10:58.822Z,96714.81
2023-02-24T11:14:21.539Z,96684.06
2023-02-24T11:17:27.952Z,96695.63
2023-02-24T11:20:47.722Z,96658.84
2023-02-24T11:23:59.713Z,96652.50
2023-02-24T11:27:04.521Z,96658.47
2023-02-24T11:30:17.219Z,96677.28
2023-02-24T11:33:40.005Z,96661.91
2023-02-24T11:37:14.796Z,96657.94
2023-02-24T11:40:27.154Z,96618.75
2023-02-24T11:43:33.813Z,96627.59
2023-02-24T11:46:54.523Z,96590.59
2023-02-24T11:50:18.036Z,96643.38
2023-02-24T11:53:25.646Z,96638.28
2023-02-24T11:56:44.239Z,96608.22
2023-02-24T11:59:54.713Z,96582.53
2023-02-24T12:03:15.954Z,96616.81
2023-02-24T12:06:51.831Z,96596.16
2023-02-24T12:10:15.986Z,96531.91
2023-02-24T12:13:44.797Z,96592.97
2023-02-24T12:16:53.455Z,96541.69
2023-02-24T12:20:05.289Z,96570.66
2023-02-24T12:23:21.185Z,96592.00
2023-02-24T12:26:32.172Z,96568.13
2023-02-24T12:29:46.199Z,96581.78
2023-02-24T12:33:05.946Z,96569.94
2023-02-24T12:36:38.518Z,96566.78
2023-02-24T12:39:49.312Z,96559.88
2023-02-24T12:43:03.046Z,96552.31
2023-02-24T12:46:21.874Z,96540.16
2023-02-24T12:49:32.866Z,96543.84
2023-02-24T12:52:38.496Z,96542.00
2023-02-24T12:56:08.188Z,96530.81
2023-02-24T12:59:16.480Z,96499.25
2023-02-24T13:02:50.443Z,96504.72
2023-02-24T13:06:05.602Z,96519.41
2023-02-24T13:09:31.772Z,96531.25
2023-02-24T13:12:39.583Z,96521.28
2023-02-24T13:15:54.231Z,96521.41
2023-02-24T13:19:18.996Z,96501.28
2023-02-24T13:22:30.288Z,96525.31
2023-02-24T13:25:38.676Z,96461.66
2023-02-24T13:28:40.799Z,96467.31
2023-02-24T13:31:48.627Z,96501.78
2023-02-24T13:34:52.055Z,96501.28
2023-02-24T13:37:54.678Z,96480.97
2023-02-24T13:41:07.896Z,96465.06
2023-02-24T13:44:19.043Z,96497.78
2023-02-24T13:47:39.674Z,96497.00
2023-02-24T13:51:09.130Z,96489.75
2023-02-24T13:54:35.921Z,96489.50
2023-02-24T13:57:51.290Z,96489.38
2023-02-24T14:01:14.885Z,96486.72
2023-02-24T14:04:26.071Z,96480.66
2023-02-24T14:07:35.252Z,96467.44
2023-02-24T14:10:38.971Z,96476.97
2023-02-24T14:13:46.547Z,96462.38
2023-02-24T14:16:51.203Z,96448.44
2023-02-24T14:19:53.317Z,96423.44
2023-02-24T14:23:00.111Z,96410.03
2023-02-24T14:26:08.304Z,96345.31
2023-02-24T14:29:11.166Z,96395.56
2023-02-24T14:32:21.625Z,96473.34
2023-02-24T14:35:31.114Z,96473.72
2023-02-24T14:38:40.266Z,96471.50
2023-02-24T14:41:43.212Z,96437.34
2023-02-24T14:44:54.976Z,96440.59
2023-02-24T14:47:57.676Z,96432.47
2023-02-24T14:51:11.802Z,96452.25
2023-02-24T14:54:21.538Z,96433.59
2023-02-24T14:57:31.023Z,96449.66
2023-02-24T15:00:41.324Z,96434.69
2023-02-24T15:03:56.688Z,96440.97
2023-02-24T15:06:59.545Z,96422.25
2023-02-24T15:10:02.952Z,96394.75
2023-02-24T15:13:34.749Z,96412.00
2023-02-24T15:16:36.837Z,96414.94
2023-02-24T15:19:49.465Z,96376.25
2023-02-24T15:22:51.881Z,96394.59
2023-02-24T15:25:54.056Z,96359.91
2023-02-24T15:29:04.452Z,96394.13
2023-02-24T15:32:15.950Z,96385.38
2023-02-24T15:35:24.980Z,96338.59
2023-02-24T15:38:34.765Z,96348.59
2023-02-24T15:41:42.315Z,96343.00
2023-02-24T15:45:02.234Z,96350.63
2023-02-24T15:48:23.445Z,96361.03
2023-02-24T15:51:39.980Z,96358.84
2023-02-24T15:54:43.579Z,96281.78
2023-02-24T15:57:47.464Z,96346.13
2023-02-24T16:00:52.630Z,96318.38
2023-02-24T16:03:55.274Z,96325.84
2023-02-24T16:06:58.052Z,96320.91
2023-02-24T16:10:01.720Z,96286.09
2023-02-24T16:13:03.924Z,96327.28
2023-02-24T16:16:08.315Z,96286.22
2023-02-24T16:19:17.727Z,96320.31
2023-02-24T16:22:19.838Z,96306.31
2023-02-24T16:25:22.570Z,96272.47
2023-02-24T16:28:25.622Z,96267.63
2023-02-24T16:31:28.420Z,96292.59
2023-02-24T16:34:31.189Z,96283.41
2023-02-24T16:37:33.292Z,96285.78
2023-02-24T16:40:38.017Z,96264.28
2023-02-24T16:43:40.931Z,96267.38
2023-02-24T16:46:45.210Z,96154.84
2023-02-24T16:49:48.842Z,96291.00
2023-02-24T16:52:51.421Z,96291.34
2023-02-24T16:55:53.707Z,96239.97
2023-02-24T16:58:55.721Z,96299.22
2023-02-24T17:02:00.202Z,96302.69
2023-02-24T17:05:02.893Z,96249.66
2023-02-24T17:08:05.281Z,96247.25
2023-02-24T17:11:13.466Z,96244.06
2023-02-24T17:14:20.957Z,96255.81
2023-02-24T17:17:23.189Z,96300.44
2023-02-24T17:20:25.669Z,96293.78
2023-02-24T17:23:27.859Z,96226.63
2023-02-24T17:26:30.537Z,96297.50
2023-02-24T17:29:33.478Z,96285.59
2023-02-24T17:32:36.337Z,96235.94
2023-02-24T17:35:38.978Z,96287.22
2023-02-24T17:38:41.196Z,96313.78
2023-02-24T17:41:43.585Z,96262.78
2023-02-24T17:44:46.260Z,96250.59
2023-02-24T17:47:48.817Z,96245.00
2023-02-24T17:50:52.819Z,96299.44
2023-02-24T17:53:55.022Z,96253.25
2023-02-24T17:56:57.240Z,96271.84
2023-02-24T17:59:59.759Z,96236.78
2023-02-24T18:03:03.538Z,96271.31
2023-02-24T18:06:12.347Z,96285.91
2023-02-24T18:09:15.459Z,96283.53
2023-02-24T18:12:21.065Z,96212.38
2023-02-24T18:15:23.510Z,96263.34
2023-02-24T18:18:28.202Z,96126.91
2023-02-24T18:21:31.306Z,96263.56
2023-02-24T18:24:34.627Z,96243.91
2023-02-24T18:27:37.270Z,96202.78
2023-02-24T18:30:40.396Z,96240.69
2023-02-24T18:33:43.839Z,96209.66
2023-02-24T18:36:47.097Z,96243.34
2023-02-24T18:39:49.573Z,96220.75
2023-02-24T18:42:53.900Z,96241.47
2023-02-24T18:46:01.774Z,96193.44
2023-02-24T18:49:14.345Z,96232.19
2023-02-24T18:52:17.006Z,96213.06
2023-02-24T18:55:20.400Z,96178.31
2023-02-24T18:58:25.386Z,96171.16
2023-02-24T19:01:40.184Z,96202.22
2023-02-24T19:04:43.305Z,96213.63
2023-02-24T19:07:47.040Z,96201.94
2023-02-24T19:10:51.546Z,96190.78
2023-02-24T19:13:56.213Z,96178.88
2023-02-24T19:17:02.170Z,96187.09
2023-02-24T19:20:07.448Z,96178.09
2023-02-24T19:23:11.343Z,96177.06
2023-02-24T19:26:28.159Z,96194.31
2023-02-24T19:29:33.521Z,96162.47
2023-02-24T19:32:36.437Z,96199.13
2023-02-24T19:35:43.840Z,96202.53
2023-02-24T19:38:48.776Z,96203.56
2023-02-24T19:41:51.492Z,96182.00
2023-02-24T19:44:54.388Z,96191.50
2023-02-24T19:48:02.344Z,96214.81
2023-02-24T19:51:22.591Z,96206.00
2023-02-24T19:54:26.384Z,96219.06
2023-02-24T19:57:31.778Z,96215.31
2023-02-24T20:00:34.998Z,96207.09
2023-02-24T20:03:39.683Z,96219.56
2023-02-24T20:06:45.036Z,96188.84
2023-02-24T20:09:49.664Z,96111.38
2023-02-24T20:12:53.189Z,96207.63
2023-02-24T20:16:13.347Z,96199.41
2023-02-24T20:19:16.786Z,96208.69
2023-02-24T20:22:21.285Z,96202.56
2023-02-24T20:25:29.579Z,96190.06
2023-02-24T20:28:32.760Z,96205.00
2023-02-24T20:31:35.846Z,96152.22
2023-02-24T20:34:39.875Z,96039.53
2023-02-24T20:37:43.174Z,96142.91
2023-02-24T20:40:46.258Z,96130.72
2023-02-24T20:43:49.611Z,96165.47
2023-02-24T20:46:52.845Z,96163.31
2023-02-24T20:49:55.891Z,96129.38
2023-02-24T20:52:59.885Z,96135.44
2023-02-24T20:56:04.662Z,96110.53
2023-02-24T20:59:16.876Z,96150.53
2023-02-24T21:02:19.601Z,96161.47
2023-02-24T21:05:26.470Z,96152.16
2023-02-24T21:08:29.384Z,96083.75
2023-02-24T21:11:32.670Z,96147.94
2023-02-24T21:14:35.127Z,96147.91
2023-02-24T21:17:37.827Z,96112.16
2023-02-24T21:20:39.836Z,96165.25
2023-02-24T21:23:43.822Z,96173.00
2023-02-24T21:26:47.761Z,96141.50
2023-02-24T21:29:50.366Z,96171.47
2023-02-24T21:32:52.742Z,96134.59
2023-02-24T21:36:03.602Z,96116.81
2023-02-24T21:39:07.403Z,96106.41
2023-02-24T21:42:12.599Z,96075.66
2023-02-24T21:45:14.787Z,96081.75
2023-02-24T21:48:16.814Z,96081.22
2023-02-24T21:51:19.360Z,96075.41
2023-02-24T21:54:22.231Z,96030.31
2023-02-24T21:57:25.162Z,96058.97
2023-02-24T22:00:29.080Z,96062.97
2023-02-24T22:03:31.238Z,96043.34
2023-02-24T22:06:35.949Z,96061.63
2023-02-24T22:09:38.484Z,96002.50
2023-02-24T22:12:40.848Z,95957.69
2023-02-24T22:15:42.854Z,95979.44
2023-02-24T22:18:45.954Z,96036.16
2023-02-24T22:21:48.214Z,95944.44
2023-02-24T22:24:51.775Z,96021.03
2023-02-24T22:27:53.915Z,95978.84
2023-02-24T22:30:57.694Z,95977.53
2023-02-24T22:34:00.919Z,95984.69
2023-02-24T22:37:03.081Z,95967.19
2023-02-24T22:40:05.543Z,95945.44
2023-02-24T22:43:07.686Z,95918.94
2023-02-24T22:46:14.852Z,95969.28
2023-02-24T22:49:18.956Z,95928.19
2023-02-24T22:52:20.973Z,95955.47
2023-02-24T22:55:24.498Z,95946.47
2023-02-24T22:58:27.005Z,95944.88
2023-02-24T23:01:32.261Z,95942.25
2023-02-24T23:04:35.352Z,95952.31
2023-02-24T23:07:37.588Z,95922.09
2023-02-24T23:10:39.837Z,95971.38
2023-02-24T23:13:44.843Z,95966.34
2023-02-24T23:16:53.858Z,95965.03
2023-02-24T23:19:55.903Z,95961.59
2023-02-24T23:22:57.868Z,95942.00
2023-02-24T23:25:59.909Z,95946.78
2023-02-24T23:29:03.400Z,95963.22
2023-02-24T23:32:05.693Z,95898.31
2023-02-24T23:35:08.717Z,95919.00
2023-02-24T23:38:11.372Z,95952.41
2023-02-24T23:41:14.073Z,95939.16
2023-02-24T23:44:16.102Z,95957.97
2023-02-24T23:47:18.184Z,95919.03
2023-02-24T23:50:20.271Z,95954.78
2023-02-24T23:53:22.289Z,95968.31
2023-02-24T23:56:26.844Z,95863.38
2023-02-24T23:59:28.897Z,95914.25
